createdAt,value
2018-08-03T00:00:33.851Z,17.15
2018-08-03T00:03:02.650Z,17.11
2018-08-03T00:05:32.507Z,17.09
2018-08-03T00:08:02.069Z,17.06
2018-08-03T00:10:30.680Z,17.01
2018-08-03T00:12:59.195Z,16.98
2018-08-03T00:15:27.740Z,16.96
2018-08-03T00:17:56.343Z,16.93
2018-08-03T00:20:25.096Z,16.88
2018-08-03T00:22:54.366Z,16.84
2018-08-03T00:25:22.954Z,16.80
2018-08-03T00:27:51.656Z,16.77
2018-08-03T00:30:20.296Z,16.76
2018-08-03T00:32:48.882Z,16.73
2018-08-03T00:35:17.490Z,16.71
2018-08-03T00:37:46.030Z,16.70
2018-08-03T00:40:14.654Z,16.68
2018-08-03T00:42:43.206Z,16.67
2018-08-03T00:45:11.799Z,16.65
2018-08-03T00:47:40.377Z,16.61
2018-08-03T00:50:08.999Z,16.59
2018-08-03T00:52:37.674Z,16.58
2018-08-03T00:55:06.666Z,16.56
2018-08-03T00:57:36.028Z,16.55
2018-08-03T01:00:04.973Z,16.55
2018-08-03T01:02:33.602Z,16.52
2018-08-03T01:05:02.186Z,16.49
2018-08-03T01:07:30.712Z,16.45
2018-08-03T01:10:00.171Z,16.42
2018-08-03T01:12:28.712Z,16.38
2018-08-03T01:14:57.337Z,16.36
2018-08-03T01:17:26.026Z,16.34
2018-08-03T01:19:54.705Z,16.31
2018-08-03T01:22:23.709Z,16.30
2018-08-03T01:24:52.504Z,16.29
2018-08-03T01:27:21.126Z,16.29
2018-08-03T01:29:49.751Z,16.31
2018-08-03T01:32:18.486Z,16.31
2018-08-03T01:34:47.078Z,16.32
2018-08-03T01:37:15.705Z,16.30
2018-08-03T01:39:44.334Z,16.29
2018-08-03T01:42:12.903Z,16.28
2018-08-03T01:44:41.558Z,16.26
2018-08-03T01:47:10.348Z,16.25
2018-08-03T01:49:39.029Z,16.22
2018-08-03T01:52:07.551Z,16.20
2018-08-03T01:54:36.195Z,16.18
2018-08-03T01:57:04.760Z,16.16
2018-08-03T01:59:33.361Z,16.14
2018-08-03T02:02:01.886Z,16.14
2018-08-03T02:04:30.528Z,16.13
2018-08-03T02:06:59.153Z,16.10
2018-08-03T02:09:27.796Z,16.06
2018-08-03T02:11:56.480Z,16.02
2018-08-03T02:14:25.006Z,16.00
2018-08-03T02:16:53.748Z,15.96
2018-08-03T02:19:22.374Z,15.92
2018-08-03T02:21:50.941Z,15.90
2018-08-03T02:24:19.599Z,15.87
2018-08-03T02:26:48.181Z,15.86
2018-08-03T02:29:17.686Z,15.83
2018-08-03T02:31:46.291Z,15.79
2018-08-03T02:34:14.795Z,15.77
2018-08-03T02:36:43.335Z,15.73
2018-08-03T02:39:12.983Z,15.71
2018-08-03T02:41:41.626Z,15.69
2018-08-03T02:44:10.871Z,15.69
2018-08-03T02:46:39.447Z,15.70
2018-08-03T02:49:08.208Z,15.70
2018-08-03T02:51:36.723Z,15.70
2018-08-03T02:54:05.287Z,15.69
2018-08-03T02:56:33.786Z,15.69
2018-08-03T02:59:02.484Z,15.70
2018-08-03T03:01:31.726Z,15.70
2018-08-03T03:04:00.409Z,14.93
2018-08-03T03:06:28.891Z,15.71
2018-08-03T03:08:57.506Z,15.70
2018-08-03T03:11:26.155Z,15.68
2018-08-03T03:13:54.666Z,15.66
2018-08-03T03:16:23.271Z,15.64
2018-08-03T03:18:51.904Z,15.63
2018-08-03T03:21:20.590Z,15.64
2018-08-03T03:23:49.197Z,15.64
2018-08-03T03:26:17.771Z,15.63
2018-08-03T03:28:46.442Z,15.62
2018-08-03T03:31:15.043Z,15.62
2018-08-03T03:33:43.654Z,15.62
2018-08-03T03:36:12.393Z,15.62
2018-08-03T03:38:40.976Z,15.63
2018-08-03T03:41:09.591Z,15.63
2018-08-03T03:43:38.193Z,15.65
2018-08-03T03:46:07.667Z,15.65
2018-08-03T03:48:36.370Z,15.27
2018-08-03T03:51:05.672Z,15.67
2018-08-03T03:53:34.317Z,15.70
2018-08-03T03:56:02.819Z,15.72
2018-08-03T03:58:31.379Z,15.73
2018-08-03T04:00:59.998Z,15.74
2018-08-03T04:03:28.588Z,15.76
2018-08-03T04:05:57.188Z,15.80
2018-08-03T04:08:25.816Z,15.81
2018-08-03T04:10:54.433Z,15.86
2018-08-03T04:13:23.039Z,15.89
2018-08-03T04:15:51.664Z,15.95
2018-08-03T04:18:21.783Z,16.02
2018-08-03T04:20:51.446Z,16.03
2018-08-03T04:23:20.384Z,16.24
2018-08-03T04:25:48.968Z,16.50
2018-08-03T04:28:17.662Z,16.50
2018-08-03T04:30:46.238Z,16.53
2018-08-03T04:33:15.080Z,16.58
2018-08-03T04:35:43.654Z,16.65
2018-08-03T04:38:12.168Z,16.73
2018-08-03T04:40:40.770Z,16.83
2018-08-03T04:43:09.455Z,16.91
2018-08-03T04:45:38.038Z,17.00
2018-08-03T04:48:06.771Z,17.13
2018-08-03T04:50:35.409Z,17.27
2018-08-03T04:53:04.095Z,17.41
2018-08-03T04:55:32.707Z,17.55
2018-08-03T04:58:01.363Z,17.68
2018-08-03T05:00:30.039Z,17.79
2018-08-03T05:02:58.631Z,17.92
2018-08-03T05:05:27.162Z,18.01
2018-08-03T05:07:55.692Z,18.12
2018-08-03T05:10:24.276Z,18.20
2018-08-03T05:12:52.963Z,18.35
2018-08-03T05:15:21.677Z,18.45
2018-08-03T05:17:50.336Z,18.59
2018-08-03T05:20:19.017Z,18.67
2018-08-03T05:22:47.600Z,18.78
2018-08-03T05:25:16.285Z,18.92
2018-08-03T05:27:44.971Z,19.04
2018-08-03T05:30:13.561Z,19.13
2018-08-03T05:32:42.167Z,19.19
2018-08-03T05:35:10.822Z,19.27
2018-08-03T05:37:39.509Z,19.36
2018-08-03T05:40:08.858Z,19.44
2018-08-03T05:42:37.604Z,19.52
2018-08-03T05:45:07.028Z,19.60
2018-08-03T05:47:35.685Z,19.69
2018-08-03T05:50:05.123Z,19.76
2018-08-03T05:52:33.773Z,19.83
2018-08-03T05:55:02.353Z,19.86
2018-08-03T05:57:30.935Z,19.98
2018-08-03T05:59:59.830Z,20.06
2018-08-03T06:02:43.051Z,20.15
2018-08-03T06:05:11.580Z,20.32
2018-08-03T06:07:40.735Z,20.36
2018-08-03T06:10:09.674Z,20.41
2018-08-03T06:12:38.305Z,20.50
2018-08-03T06:15:08.867Z,20.56
2018-08-03T06:17:37.986Z,20.67
2018-08-03T06:20:07.799Z,20.74
2018-08-03T06:22:36.345Z,20.80
2018-08-03T06:25:05.598Z,20.85
2018-08-03T06:27:34.578Z,20.92
2018-08-03T06:30:03.170Z,20.99
2018-08-03T06:32:31.779Z,21.06
2018-08-03T06:35:00.294Z,21.09
2018-08-03T06:37:28.949Z,21.13
2018-08-03T06:39:57.528Z,21.16
2018-08-03T06:42:26.093Z,21.20
2018-08-03T06:44:54.797Z,21.28
2018-08-03T06:47:23.484Z,21.32
2018-08-03T06:49:52.027Z,21.37
2018-08-03T06:52:20.754Z,21.40
2018-08-03T06:54:49.380Z,21.42
2018-08-03T06:57:18.123Z,21.49
2018-08-03T06:59:46.812Z,21.54
2018-08-03T07:02:15.391Z,21.56
2018-08-03T07:04:44.082Z,21.57
2018-08-03T07:07:12.725Z,21.60
2018-08-03T07:09:41.445Z,21.68
2018-08-03T07:12:10.130Z,21.73
2018-08-03T07:14:38.777Z,21.80
2018-08-03T07:17:07.398Z,21.90
2018-08-03T07:19:36.023Z,22.04
2018-08-03T07:22:04.667Z,22.12
2018-08-03T07:24:33.249Z,22.21
2018-08-03T07:27:01.948Z,22.33
2018-08-03T07:29:30.658Z,22.36
2018-08-03T07:31:59.221Z,22.39
2018-08-03T07:34:27.888Z,22.37
2018-08-03T07:36:56.461Z,22.42
2018-08-03T07:39:25.068Z,22.48
2018-08-03T07:41:53.742Z,22.48
2018-08-03T07:44:22.332Z,22.55
2018-08-03T07:46:53.138Z,22.53
2018-08-03T07:49:21.741Z,22.54
2018-08-03T07:51:50.344Z,22.58
2018-08-03T07:54:18.976Z,22.62
2018-08-03T07:56:47.591Z,22.73
2018-08-03T07:59:16.277Z,22.79
2018-08-03T08:01:44.778Z,22.87
2018-08-03T08:04:13.386Z,22.91
2018-08-03T08:06:42.127Z,22.93
2018-08-03T08:09:12.144Z,22.96
2018-08-03T08:11:41.491Z,22.98
2018-08-03T08:14:10.231Z,23.02
2018-08-03T08:16:38.815Z,22.99
2018-08-03T08:19:07.604Z,22.95
2018-08-03T08:21:36.272Z,22.98
2018-08-03T08:24:04.870Z,22.99
2018-08-03T08:26:33.381Z,23.09
2018-08-03T08:29:02.003Z,23.18
2018-08-03T08:31:30.785Z,23.22
2018-08-03T08:33:59.435Z,23.23
2018-08-03T08:36:28.297Z,23.37
2018-08-03T08:38:56.823Z,23.44
2018-08-03T08:41:25.462Z,23.49
2018-08-03T08:43:54.260Z,23.62
2018-08-03T08:46:22.730Z,23.70
2018-08-03T08:48:51.417Z,23.72
2018-08-03T08:51:19.919Z,23.74
2018-08-03T08:53:48.684Z,23.83
2018-08-03T08:56:18.086Z,23.82
2018-08-03T08:58:47.038Z,23.67
2018-08-03T09:01:15.693Z,23.68
2018-08-03T09:03:44.348Z,23.80
2018-08-03T09:06:12.874Z,23.83
2018-08-03T09:08:41.513Z,23.83
2018-08-03T09:11:10.345Z,24.00
2018-08-03T09:13:38.966Z,24.10
2018-08-03T09:16:07.940Z,24.11
2018-08-03T09:18:36.511Z,24.10
2018-08-03T09:21:05.174Z,24.12
2018-08-03T09:23:33.932Z,24.18
2018-08-03T09:26:02.926Z,24.33
2018-08-03T09:28:31.768Z,24.47
2018-08-03T09:31:00.404Z,24.49
2018-08-03T09:33:28.923Z,24.54
2018-08-03T09:35:57.667Z,24.55
2018-08-03T09:38:26.301Z,24.59
2018-08-03T09:40:54.903Z,24.60
2018-08-03T09:43:23.561Z,24.64
2018-08-03T09:45:52.202Z,24.77
2018-08-03T09:48:20.800Z,24.86
2018-08-03T09:50:49.311Z,24.79
2018-08-03T09:53:17.895Z,24.75
2018-08-03T09:55:46.535Z,24.78
2018-08-03T09:58:15.219Z,24.91
2018-08-03T10:00:48.987Z,25.09
2018-08-03T10:03:17.528Z,25.22
2018-08-03T10:05:46.230Z,25.37
2018-08-03T10:08:14.876Z,25.28
2018-08-03T10:10:43.563Z,25.26
2018-08-03T10:13:12.083Z,25.29
2018-08-03T10:15:40.754Z,25.28
2018-08-03T10:18:09.254Z,25.38
2018-08-03T10:20:37.891Z,25.37
2018-08-03T10:23:06.423Z,25.32
2018-08-03T10:25:35.068Z,25.22
2018-08-03T10:28:03.845Z,25.27
2018-08-03T10:30:33.165Z,25.23
2018-08-03T10:33:01.932Z,25.29
2018-08-03T10:35:30.450Z,25.22
2018-08-03T10:37:59.043Z,25.30
2018-08-03T10:40:28.297Z,25.27
2018-08-03T10:42:56.958Z,25.26
2018-08-03T10:45:25.507Z,25.33
2018-08-03T10:47:54.145Z,25.46
2018-08-03T10:50:22.794Z,25.50
2018-08-03T10:52:51.367Z,25.49
2018-08-03T10:55:19.999Z,25.45
2018-08-03T10:57:48.638Z,25.47
2018-08-03T11:00:29.624Z,25.47
2018-08-03T11:02:58.802Z,25.29
2018-08-03T11:05:27.914Z,25.25
2018-08-03T11:07:56.558Z,25.33
2018-08-03T11:10:25.113Z,25.52
2018-08-03T11:12:54.083Z,25.60
2018-08-03T11:15:22.691Z,25.56
2018-08-03T11:17:51.683Z,25.60
2018-08-03T11:20:20.235Z,25.63
2018-08-03T11:22:48.803Z,25.61
2018-08-03T11:25:17.534Z,25.45
2018-08-03T11:27:46.232Z,25.42
2018-08-03T11:30:14.970Z,25.45
2018-08-03T11:32:43.544Z,25.55
2018-08-03T11:35:12.139Z,25.64
2018-08-03T11:37:40.755Z,25.75
2018-08-03T11:40:09.698Z,25.75
2018-08-03T11:42:38.330Z,25.58
2018-08-03T11:45:08.736Z,25.56
2018-08-03T11:47:37.795Z,25.68
2018-08-03T11:50:07.823Z,25.72
2018-08-03T11:52:36.480Z,25.64
2018-08-03T11:55:05.046Z,25.55
2018-08-03T11:57:33.923Z,25.56
2018-08-03T12:00:02.482Z,25.62
2018-08-03T12:02:31.091Z,25.73
2018-08-03T12:05:00.491Z,26.03
2018-08-03T12:07:28.995Z,26.18
2018-08-03T12:09:57.657Z,26.25
2018-08-03T12:12:26.156Z,26.39
2018-08-03T12:14:55.531Z,26.29
2018-08-03T12:17:24.142Z,26.38
2018-08-03T12:19:52.911Z,26.32
2018-08-03T12:22:21.439Z,26.27
2018-08-03T12:24:50.078Z,26.24
2018-08-03T12:27:18.863Z,26.12
2018-08-03T12:29:47.499Z,25.91
2018-08-03T12:32:16.167Z,25.93
2018-08-03T12:34:44.820Z,26.04
2018-08-03T12:37:13.505Z,26.21
2018-08-03T12:39:42.127Z,26.26
2018-08-03T12:42:10.716Z,26.09
2018-08-03T12:44:39.272Z,26.07
2018-08-03T12:47:07.983Z,26.20
2018-08-03T12:49:36.539Z,26.23
2018-08-03T12:52:05.152Z,26.18
2018-08-03T12:54:33.839Z,26.20
2018-08-03T12:57:02.477Z,26.36
2018-08-03T12:59:31.123Z,26.39
2018-08-03T13:01:59.666Z,26.43
2018-08-03T13:04:28.252Z,26.73
2018-08-03T13:06:56.809Z,26.66
2018-08-03T13:09:25.593Z,26.59
2018-08-03T13:11:54.192Z,26.63
2018-08-03T13:14:22.684Z,26.79
2018-08-03T13:16:51.302Z,26.71
2018-08-03T13:19:19.927Z,26.72
2018-08-03T13:21:48.609Z,26.79
2018-08-03T13:24:17.117Z,26.80
2018-08-03T13:26:45.714Z,26.82
2018-08-03T13:29:14.461Z,26.84
2018-08-03T13:31:43.146Z,27.01
2018-08-03T13:34:11.771Z,27.27
2018-08-03T13:36:40.326Z,27.24
2018-08-03T13:39:09.444Z,27.08
2018-08-03T13:41:38.503Z,26.95
2018-08-03T13:44:07.100Z,26.89
2018-08-03T13:46:35.696Z,26.82
2018-08-03T13:49:04.293Z,26.70
2018-08-03T13:51:32.937Z,26.69
2018-08-03T13:54:01.553Z,26.65
2018-08-03T13:56:30.120Z,26.64
2018-08-03T13:58:58.711Z,26.64
2018-08-03T14:01:40.379Z,26.69
2018-08-03T14:04:09.667Z,26.60
2018-08-03T14:06:38.178Z,26.61
2018-08-03T14:09:07.787Z,26.66
2018-08-03T14:11:36.445Z,26.82
2018-08-03T14:14:05.234Z,26.74
2018-08-03T14:19:38.050Z,26.61
2018-08-03T14:22:06.944Z,26.65
2018-08-03T14:24:35.917Z,26.77
2018-08-03T14:27:05.301Z,26.65
2018-08-03T14:29:34.312Z,26.54
2018-08-03T14:32:03.655Z,26.56
2018-08-03T14:34:32.215Z,26.48
2018-08-03T14:37:00.836Z,26.39
2018-08-03T14:39:29.410Z,26.34
2018-08-03T14:41:58.046Z,26.36
2018-08-03T14:44:26.705Z,26.39
2018-08-03T14:46:55.244Z,26.39
2018-08-03T14:49:23.999Z,26.48
2018-08-03T14:51:52.684Z,26.43
2018-08-03T14:54:21.330Z,26.36
2018-08-03T14:56:49.991Z,26.29
2018-08-03T14:59:18.637Z,26.22
2018-08-03T15:01:48.347Z,26.16
2018-08-03T15:04:17.034Z,26.01
2018-08-03T15:06:45.924Z,25.93
2018-08-03T15:09:14.610Z,25.85
2018-08-03T15:11:43.235Z,25.82
2018-08-03T15:14:11.936Z,25.88
2018-08-03T15:16:40.565Z,25.95
2018-08-03T15:19:09.686Z,25.93
2018-08-03T15:21:38.370Z,25.90
2018-08-03T15:24:06.907Z,25.82
2018-08-03T15:26:35.570Z,25.91
2018-08-03T15:29:04.415Z,25.92
2018-08-03T15:31:32.983Z,25.96
2018-08-03T15:34:01.507Z,26.09
2018-08-03T15:36:30.146Z,26.21
2018-08-03T15:38:58.729Z,26.30
2018-08-03T15:41:27.312Z,26.29
2018-08-03T15:43:56.005Z,26.26
2018-08-03T15:46:26.738Z,26.34
2018-08-03T15:48:55.354Z,26.37
2018-08-03T15:51:23.947Z,26.28
2018-08-03T15:53:53.197Z,26.25
2018-08-03T15:56:21.880Z,26.25
2018-08-03T15:58:50.435Z,26.17
2018-08-03T16:01:19.096Z,26.22
2018-08-03T16:03:47.732Z,26.15
2018-08-03T16:06:16.282Z,26.03
2018-08-03T16:08:44.849Z,25.84
2018-08-03T16:11:27.403Z,25.84
2018-08-03T16:13:56.056Z,25.88
2018-08-03T16:16:25.570Z,25.81
2018-08-03T16:18:54.185Z,25.77
2018-08-03T16:21:22.845Z,25.72
2018-08-03T16:23:51.578Z,25.65
2018-08-03T16:26:20.175Z,25.69
2018-08-03T16:28:48.922Z,25.74
2018-08-03T16:31:17.815Z,25.77
2018-08-03T16:33:48.546Z,25.84
2018-08-03T16:36:17.231Z,25.91
2018-08-03T16:38:45.879Z,26.01
2018-08-03T16:41:14.604Z,26.01
2018-08-03T16:43:43.855Z,25.87
2018-08-03T16:46:16.068Z,25.75
2018-08-03T16:48:44.695Z,25.66
2018-08-03T16:51:16.283Z,25.58
2018-08-03T16:53:47.653Z,25.51
2018-08-03T16:56:19.187Z,25.44
2018-08-03T16:58:48.915Z,25.42
2018-08-03T17:01:17.546Z,25.39
2018-08-03T17:03:48.128Z,25.31
2018-08-03T17:06:19.185Z,25.23
2018-08-03T17:08:58.094Z,25.24
2018-08-03T17:11:28.061Z,25.24
2018-08-03T17:16:57.379Z,25.23
2018-08-03T17:19:29.034Z,25.22
2018-08-03T17:22:07.539Z,25.23
2018-08-03T17:24:39.358Z,25.22
2018-08-03T17:27:09.450Z,25.17
2018-08-03T17:29:39.783Z,25.15
2018-08-03T17:32:09.721Z,25.09
2018-08-03T17:34:39.221Z,24.97
2018-08-03T17:37:07.904Z,24.87
2018-08-03T17:42:18.946Z,24.87
2018-08-03T17:44:49.406Z,24.78
2018-08-03T17:47:18.009Z,24.77
2018-08-03T17:49:46.692Z,24.81
2018-08-03T17:52:15.326Z,24.79
2018-08-03T17:54:43.884Z,24.74
2018-08-03T17:57:12.382Z,24.75
2018-08-03T17:59:40.970Z,24.76
2018-08-03T18:02:09.526Z,24.73
2018-08-03T18:04:38.394Z,24.59
2018-08-03T18:07:07.030Z,24.51
2018-08-03T18:09:35.615Z,24.46
2018-08-03T18:12:04.921Z,24.34
2018-08-03T18:14:33.506Z,24.29
2018-08-03T18:17:02.040Z,24.18
2018-08-03T18:19:30.812Z,24.10
2018-08-03T18:21:59.395Z,24.05
2018-08-03T18:24:27.931Z,24.04
2018-08-03T18:26:56.562Z,23.99
2018-08-03T18:29:25.091Z,23.91
2018-08-03T18:31:53.734Z,23.82
2018-08-03T18:34:22.390Z,23.76
2018-08-03T18:36:50.997Z,23.69
2018-08-03T18:39:19.683Z,23.59
2018-08-03T18:41:48.265Z,23.51
2018-08-03T18:44:16.952Z,23.43
2018-08-03T18:46:45.534Z,23.39
2018-08-03T18:49:14.059Z,23.35
2018-08-03T18:51:42.740Z,23.31
2018-08-03T18:54:11.384Z,23.26
2018-08-03T18:56:40.072Z,23.18
2018-08-03T18:59:08.910Z,23.12
2018-08-03T19:01:37.491Z,23.10
2018-08-03T19:04:06.226Z,23.09
2018-08-03T19:06:34.811Z,23.05
2018-08-03T19:09:03.703Z,23.05
2018-08-03T19:11:32.200Z,22.99
2018-08-03T19:14:01.064Z,22.99
2018-08-03T19:16:29.711Z,23.00
2018-08-03T19:18:58.215Z,22.97
2018-08-03T19:21:26.753Z,22.93
2018-08-03T19:23:55.407Z,22.85
2018-08-03T19:26:24.099Z,22.83
2018-08-03T19:28:52.776Z,22.79
2018-08-03T19:31:21.584Z,22.78
2018-08-03T19:33:50.133Z,22.76
2018-08-03T19:36:18.735Z,22.70
2018-08-03T19:38:47.418Z,22.66
2018-08-03T19:41:15.998Z,22.63
2018-08-03T19:43:44.567Z,22.58
2018-08-03T19:46:13.161Z,22.54
2018-08-03T19:48:41.847Z,22.50
2018-08-03T19:51:10.539Z,22.47
2018-08-03T19:53:39.319Z,22.43
2018-08-03T19:56:08.006Z,22.38
2018-08-03T19:58:36.837Z,22.37
2018-08-03T20:01:05.482Z,22.35
2018-08-03T20:03:34.161Z,22.33
2018-08-03T20:06:02.686Z,22.33
2018-08-03T20:08:31.328Z,22.34
2018-08-03T20:11:00.258Z,22.32
2018-08-03T20:13:29.727Z,22.32
2018-08-03T20:15:58.407Z,22.30
2018-08-03T20:18:26.990Z,22.28
2018-08-03T20:20:55.675Z,22.28
2018-08-03T20:23:25.107Z,22.28
2018-08-03T20:25:53.704Z,22.24
2018-08-03T20:28:22.347Z,22.23
2018-08-03T20:30:50.979Z,22.20
2018-08-03T20:33:19.562Z,22.18
2018-08-03T20:35:48.094Z,22.15
2018-08-03T20:38:16.828Z,22.12
2018-08-03T20:40:45.511Z,22.08
2018-08-03T20:43:14.049Z,22.09
2018-08-03T20:45:42.630Z,22.08
2018-08-03T20:48:11.485Z,22.11
2018-08-03T20:50:47.932Z,22.18
2018-08-03T20:53:16.575Z,22.26
2018-08-03T20:55:45.099Z,22.17
2018-08-03T20:58:13.739Z,22.23
2018-08-03T21:00:42.372Z,22.22
2018-08-03T21:03:11.005Z,22.21
2018-08-03T21:05:39.604Z,22.17
2018-08-03T21:08:08.273Z,22.12
2018-08-03T21:10:36.798Z,22.11
2018-08-03T21:13:05.318Z,22.07
2018-08-03T21:15:33.920Z,22.04
2018-08-03T21:18:03.014Z,22.03
2018-08-03T21:20:31.491Z,22.02
2018-08-03T21:23:00.000Z,22.00
2018-08-03T21:25:28.615Z,21.98
2018-08-03T21:27:57.346Z,21.98
2018-08-03T21:30:25.931Z,21.90
2018-08-03T21:32:54.612Z,21.95
2018-08-03T21:35:23.203Z,21.92
2018-08-03T21:37:52.088Z,21.90
2018-08-03T21:40:20.723Z,21.87
2018-08-03T21:42:49.243Z,21.84
2018-08-03T21:45:17.838Z,21.81
2018-08-03T21:47:46.343Z,21.79
2018-08-03T21:50:14.926Z,21.76
2018-08-03T21:52:43.646Z,21.76
2018-08-03T21:55:12.270Z,21.74
2018-08-03T21:57:40.878Z,21.72
2018-08-03T22:00:13.123Z,21.70
2018-08-03T22:02:41.731Z,21.67
2018-08-03T22:05:10.244Z,21.62
2018-08-03T22:07:38.827Z,21.58
2018-08-03T22:10:07.821Z,21.53
2018-08-03T22:12:36.471Z,21.52
2018-08-03T22:15:05.376Z,21.52
2018-08-03T22:17:34.595Z,21.50
2018-08-03T22:20:03.219Z,21.47
2018-08-03T22:22:32.054Z,21.47
2018-08-03T22:25:00.635Z,21.47
2018-08-03T22:27:29.396Z,21.48
2018-08-03T22:29:58.066Z,21.52
2018-08-03T22:32:26.766Z,21.53
2018-08-03T22:34:55.294Z,21.51
2018-08-03T22:37:23.838Z,21.58
2018-08-03T22:39:52.423Z,21.60
2018-08-03T22:42:21.181Z,21.62
2018-08-03T22:44:49.867Z,21.64
2018-08-03T22:47:18.371Z,21.65
2018-08-03T22:49:47.010Z,21.66
2018-08-03T22:52:15.650Z,21.63
2018-08-03T22:54:44.198Z,21.64
2018-08-03T22:57:12.781Z,21.60
2018-08-03T22:59:41.278Z,21.53
2018-08-03T23:02:09.906Z,21.48
2018-08-03T23:04:39.452Z,21.39
2018-08-03T23:07:08.498Z,21.38
2018-08-03T23:09:37.071Z,21.37
2018-08-03T23:12:05.783Z,21.35
2018-08-03T23:14:34.356Z,21.32
2018-08-03T23:17:03.036Z,21.28
2018-08-03T23:19:32.381Z,21.19
2018-08-03T23:22:01.010Z,21.19
2018-08-03T23:24:30.674Z,21.16
2018-08-03T23:26:59.174Z,21.16
2018-08-03T23:29:27.835Z,21.17
2018-08-03T23:31:56.799Z,21.12
2018-08-03T23:34:25.362Z,21.13
2018-08-03T23:36:53.895Z,21.13
2018-08-03T23:39:22.683Z,21.13
2018-08-03T23:41:52.291Z,21.15
2018-08-03T23:44:20.893Z,21.12
2018-08-03T23:46:49.440Z,21.11
2018-08-03T23:49:17.986Z,21.10
2018-08-03T23:51:46.519Z,21.08
2018-08-03T23:54:15.205Z,21.07
2018-08-03T23:56:43.788Z,21.04
2018-08-03T23:59:12.425Z,21.05
